Time;durP1;ratioP1;P1;durP2;ratioP2;P2;SDS_P1;SDS_P2;PMS_P1;PMS_P2;Temp;Humidity;BMP_temperature;BMP_pressure;BME280_temperature;BME280_humidity;BME280_pressure;Samples;Min_cycle;Max_cycle;Signal;HPM_P1;HPM_P2
2021/03/18 00:00:33;;;;;;;0.50;0.50;;;;;;;1.46;82.17;92608.81;5112051;28;20058;-58
2021/03/18 00:02:59;;;;;;;1.60;1.50;;;;;;;1.44;82.67;92605.88;5111590;28;20019;-59
2021/03/18 00:05:24;;;;;;;0.95;0.93;;;;;;;1.44;82.61;92606.63;5111697;28;20027;-60
2021/03/18 00:07:49;;;;;;;2.85;0.93;;;;;;;1.56;82.17;92599.06;5111724;28;20026;-60
2021/03/18 00:10:16;;;;;;;0.47;0.47;;;;;;;1.46;81.67;92609.56;5111789;28;20095;-60
2021/03/18 00:12:41;;;;;;;1.38;1.27;;;;;;;1.38;82.01;92608.66;5111890;28;20019;-60
2021/03/18 00:15:09;;;;;;;1.08;0.90;;;;;;;1.37;82.50;92606.44;5111676;28;20104;-59
2021/03/18 00:17:35;;;;;;;0.52;0.52;;;;;;;1.34;83.01;92608.19;5111667;28;20038;-59
2021/03/18 00:20:08;;;;;;;5.72;1.33;;;;;;;1.21;83.71;92605.34;5111436;28;20027;-59
2021/03/18 00:22:37;;;;;;;2.33;1.13;;;;;;;1.12;84.05;92602.97;5111568;28;20022;-59
2021/03/18 00:25:04;;;;;;;;;;;;;;;1.17;83.74;92604.88;5112945;28;20042;-61
2021/03/18 00:27:29;;;;;;;0.80;0.80;;;;;;;1.17;83.70;92606.91;5115902;28;19908;-50
2021/03/18 00:29:54;;;;;;;1.48;1.38;;;;;;;1.14;83.76;92605.19;5115451;28;20510;-53
2021/03/18 00:32:20;;;;;;;3.47;1.40;;;;;;;1.06;84.05;92610.44;5115734;28;20018;-55
2021/03/18 00:34:45;;;;;;;1.42;0.75;;;;;;;1.12;84.54;92608.41;5115773;28;20039;-54
2021/03/18 00:37:10;;;;;;;0.90;0.73;;;;;;;1.14;83.74;92605.91;5115565;28;20499;-55
2021/03/18 00:39:36;;;;;;;0.40;0.40;;;;;;;1.21;83.58;92610.06;5115629;28;20066;-55
2021/03/18 00:42:02;;;;;;;0.40;0.40;;;;;;;1.25;83.63;92605.81;5115608;28;20054;-60
2021/03/18 00:44:27;;;;;;;0.85;0.85;;;;;;;1.24;83.77;92609.78;5115680;28;20040;-52
2021/03/18 00:46:53;;;;;;;5.18;1.73;;;;;;;1.33;83.67;92609.44;5115487;28;20480;-60
2021/03/18 00:49:18;;;;;;;0.75;0.75;;;;;;;1.22;83.74;92600.66;5115646;28;20084;-59
2021/03/18 00:51:44;;;;;;;1.50;1.40;;;;;;;1.22;83.47;92601.38;5115402;28;20420;-61
2021/03/18 00:54:09;;;;;;;0.40;0.40;;;;;;;1.24;83.21;92609.78;5115370;28;20023;-60
2021/03/18 00:56:35;;;;;;;1.42;1.33;;;;;;;1.30;83.09;92615.88;5115032;28;20031;-60
2021/03/18 00:59:00;;;;;;;0.90;0.90;;;;;;;1.30;83.18;92607.00;5115251;28;20023;-60
2021/03/18 01:01:26;;;;;;;0.38;0.38;;;;;;;1.33;83.63;92606.72;5115185;28;20024;-60
2021/03/18 01:03:52;;;;;;;1.10;1.00;;;;;;;1.27;83.44;92608.03;5115057;28;20035;-60
2021/03/18 01:06:28;;;;;;;1.65;1.45;;;;;;;1.39;83.23;92609.38;5115119;28;20508;-63
2021/03/18 01:08:55;;;;;;;0.30;0.30;;;;;;;1.43;82.41;92610.56;5114972;28;20098;-62
2021/03/18 01:11:24;;;;;;;0.40;0.40;;;;;;;1.49;82.20;92611.25;5115043;28;20047;-60
2021/03/18 01:13:52;;;;;;;1.48;1.38;;;;;;;1.44;81.67;92608.59;5115098;28;20019;-59
2021/03/18 01:16:27;;;;;;;0.35;0.35;;;;;;;1.37;81.72;92615.34;5114897;28;20043;-59
2021/03/18 01:18:56;;;;;;;1.75;1.65;;;;;;;1.39;82.26;92609.38;5114836;28;20556;-53
2021/03/18 01:21:23;;;;;;;;;;;;;;;1.42;82.55;92613.81;5115228;28;20080;-55
2021/03/18 01:23:49;;;;;;;0.35;0.35;;;;;;;1.38;82.11;92613.34;5114833;28;19912;-55
2021/03/18 01:26:15;;;;;;;0.73;0.73;;;;;;;1.36;82.47;92621.28;5114691;28;20484;-55
2021/03/18 01:28:40;;;;;;;0.20;0.20;;;;;;;1.36;82.27;92619.31;5114639;28;20042;-55
2021/03/18 01:31:07;;;;;;;0.30;0.30;;;;;;;1.47;82.69;92619.19;5113704;28;20028;-55
2021/03/18 01:33:33;;;;;;;1.73;1.60;;;;;;;1.29;81.85;92606.28;5114107;28;20404;-56
2021/03/18 01:36:00;;;;;;;0.75;0.75;;;;;;;1.38;82.10;92619.53;5114305;28;20023;-60
2021/03/18 01:38:29;;;;;;;0.50;0.50;;;;;;;1.32;82.43;92620.84;5114379;28;20023;-57
2021/03/18 01:40:55;;;;;;;1.48;1.05;;;;;;;1.29;82.85;92619.13;5114442;28;20669;-58
2021/03/18 01:43:22;;;;;;;1.15;1.15;;;;;;;1.40;82.22;92617.03;5114390;28;20106;-60
2021/03/18 01:45:48;;;;;;;1.90;1.38;;;;;;;1.30;82.54;92623.34;5114306;28;20095;-60
2021/03/18 01:48:13;;;;;;;1.48;1.38;;;;;;;1.30;82.76;92618.59;5096215;28;20555;-58
2021/03/18 01:50:40;;;;;;;0.50;0.50;;;;;;;1.39;81.76;92620.25;5114352;28;20016;-57
2021/03/18 01:53:06;;;;;;;0.60;0.60;;;;;;;1.32;82.50;92627.00;5114194;28;20020;-58
2021/03/18 01:55:40;;;;;;;3.13;2.03;;;;;;;1.30;82.71;92621.31;5113980;28;20024;-58
2021/03/18 01:58:06;;;;;;;0.85;0.85;;;;;;;1.35;81.76;92623.25;5113981;28;20484;-58
2021/03/18 02:00:33;;;;;;;2.30;1.15;;;;;;;1.20;82.06;92622.91;5114213;28;20027;-58
2021/03/18 02:03:00;;;;;;;1.55;0.73;;;;;;;1.22;82.11;92634.00;5113866;28;20028;-58
2021/03/18 02:05:26;;;;;;;3.40;2.28;;;;;;;1.18;82.05;92633.56;5114089;28;20107;-59
2021/03/18 02:07:53;;;;;;;0.40;0.40;;;;;;;1.15;82.28;92633.84;5113826;28;20035;-58
2021/03/18 02:10:30;;;;;;;0.45;0.45;;;;;;;1.07;83.16;92639.09;5113821;28;20028;-59
2021/03/18 02:12:56;;;;;;;1.08;0.95;;;;;;;1.01;83.06;92634.94;5114030;28;20096;-58
2021/03/18 02:15:27;;;;;;;0.52;0.52;;;;;;;1.04;82.94;92636.66;5113743;28;20500;-58
2021/03/18 02:18:05;;;;;;;1.10;1.02;;;;;;;0.94;83.13;92627.34;5095720;28;20023;-57
2021/03/18 02:21:02;;;;;;;0.30;0.30;;;;;;;0.97;83.38;92645.38;5095383;28;20084;-57
2021/03/18 02:23:40;;;;;;;0.93;0.93;;;;;;;0.97;83.86;92646.09;5095395;28;20019;-58
2021/03/18 02:26:19;;;;;;;1.27;1.27;;;;;;;0.86;83.62;92656.31;5113138;28;20051;-55
2021/03/18 02:29:10;;;;;;;1.77;1.67;;;;;;;0.94;84.14;92652.53;5095440;28;20023;-57
2021/03/18 02:31:50;;;;;;;0.63;0.63;;;;;;;0.96;83.82;92657.47;5113528;28;20028;-58
2021/03/18 02:34:21;;;;;;;1.52;1.33;;;;;;;0.94;84.08;92657.22;5113345;28;20024;-53
2021/03/18 02:36:55;;;;;;;1.20;1.20;;;;;;;1.02;83.86;92653.47;5095485;28;20469;-51
2021/03/18 02:39:32;;;;;;;0.68;0.68;;;;;;;1.11;83.38;92658.56;5095193;28;20016;-56
2021/03/18 02:42:03;;;;;;;1.08;1.08;;;;;;;0.90;84.25;92654.81;5113287;28;20024;-53
2021/03/18 02:44:31;;;;;;;0.63;0.63;;;;;;;1.01;83.96;92657.44;5095046;28;20034;-59
2021/03/18 02:47:00;;;;;;;1.05;1.05;;;;;;;0.99;83.86;92654.47;5112887;28;20023;-56
2021/03/18 02:49:26;;;;;;;1.10;1.00;;;;;;;0.92;83.76;92660.47;5112515;28;20020;-60
2021/03/18 02:51:53;;;;;;;2.75;1.95;;;;;;;1.01;83.24;92657.44;5094972;28;20094;-61
2021/03/18 02:54:20;;;;;;;0.65;0.65;;;;;;;0.89;83.82;92655.31;5094836;28;20024;-60
2021/03/18 02:56:48;;;;;;;1.33;1.23;;;;;;;0.95;84.17;92658.72;5091189;28;20049;-60
2021/03/18 02:59:18;;;;;;;0.85;0.85;;;;;;;0.95;83.95;92656.00;5091251;28;20160;-59
2021/03/18 03:01:45;;;;;;;0.30;0.30;;;;;;;0.95;83.42;92670.34;5091362;28;20075;-59
2021/03/18 03:04:15;;;;;;;2.08;1.98;;;;;;;1.01;83.30;92667.56;5091181;28;20024;-60
2021/03/18 03:06:42;;;;;;;3.08;1.35;;;;;;;1.09;83.44;92660.31;5090954;28;20036;-58
2021/03/18 03:09:09;;;;;;;0.28;0.28;;;;;;;1.13;82.63;92658.81;5092375;28;20016;-51
2021/03/18 03:11:36;;;;;;;1.40;1.40;;;;;;;1.09;82.99;92663.78;5091183;28;20052;-50
2021/03/18 03:14:02;;;;;;;1.50;1.50;;;;;;;1.00;82.98;92666.06;5092148;28;20046;-53
2021/03/18 03:16:28;;;;;;;0.75;0.70;;;;;;;0.87;83.30;92672.09;5091033;28;20028;-54
2021/03/18 03:18:54;;;;;;;1.02;1.02;;;;;;;0.96;83.59;92673.78;5091151;28;20024;-48
2021/03/18 03:21:21;;;;;;;1.77;1.67;;;;;;;0.92;83.03;92670.59;5092178;28;20404;-49
2021/03/18 03:23:47;;;;;;;6.05;1.10;;;;;;;0.86;84.00;92670.66;5092197;28;20012;-50
2021/03/18 03:26:15;;;;;;;2.53;1.30;;;;;;;0.91;83.60;92669.84;5092011;28;20048;-55
2021/03/18 03:28:41;;;;;;;1.70;1.57;;;;;;;0.90;83.13;92673.81;5092093;28;20028;-58
2021/03/18 03:31:07;;;;;;;3.13;2.88;;;;;;;0.92;83.24;92678.75;5090986;28;20028;-56
2021/03/18 03:33:32;;;;;;;1.00;1.00;;;;;;;0.92;83.08;92676.78;5090747;28;20511;-54
2021/03/18 03:35:59;;;;;;;1.05;1.00;;;;;;;1.05;82.94;92676.16;5092016;28;20024;-54
2021/03/18 03:38:25;;;;;;;0.55;0.55;;;;;;;0.99;83.07;92686.34;5091871;28;20024;-52
2021/03/18 03:40:51;;;;;;;1.95;1.48;;;;;;;0.92;83.13;92686.91;5106756;28;20153;-50
2021/03/18 03:43:17;;;;;;;0.52;0.52;;;;;;;0.90;83.31;92686.66;5112174;28;20051;-50
2021/03/18 03:45:44;;;;;;;0.70;0.70;;;;;;;0.97;83.41;92688.84;5111982;28;20476;-51
2021/03/18 03:48:09;;;;;;;1.02;1.02;;;;;;;0.91;83.08;92678.00;5112296;28;20024;-50
2021/03/18 03:50:36;;;;;;;1.65;1.55;;;;;;;0.91;83.41;92686.16;5093985;28;20062;-52
2021/03/18 03:53:10;;;;;;;0.57;0.57;;;;;;;0.86;83.15;92691.63;5111827;28;20034;-53
2021/03/18 03:55:56;;;;;;;2.10;1.40;;;;;;;0.91;83.25;92683.44;5093887;28;20024;-52
2021/03/18 03:58:42;;;;;;;0.65;0.63;;;;;;;0.86;83.16;92691.63;5112069;28;20028;-53
2021/03/18 04:01:29;;;;;;;2.80;0.63;;;;;;;0.90;83.69;92692.09;5093537;28;20080;-50
2021/03/18 04:04:02;;;;;;;1.08;1.08;;;;;;;0.88;83.58;92692.63;5111705;28;20107;-52
2021/03/18 04:06:29;;;;;;;1.17;1.17;;;;;;;0.82;83.83;92696.59;5111864;28;20480;-50
2021/03/18 04:08:56;;;;;;;0.45;0.45;;;;;;;0.82;83.99;92688.47;5093753;28;20023;-54
2021/03/18 04:11:22;;;;;;;1.05;0.60;;;;;;;0.89;84.19;92696.06;5093502;28;20031;-54
2021/03/18 04:13:48;;;;;;;2.17;2.05;;;;;;;0.84;83.86;92700.31;5093907;28;20016;-53
2021/03/18 04:16:15;;;;;;;0.77;0.77;;;;;;;0.87;83.40;92696.56;5093545;28;20046;-52
2021/03/18 04:18:42;;;;;;;1.05;1.05;;;;;;;0.88;83.64;92698.03;5111613;28;20031;-53
2021/03/18 04:21:09;;;;;;;0.63;0.63;;;;;;;0.74;83.42;92677.38;5093763;28;20024;-56
2021/03/18 04:23:36;;;;;;;0.38;0.38;;;;;;;0.79;83.80;92692.91;5093472;28;20040;-60
2021/03/18 04:26:01;;;;;;;0.93;0.93;;;;;;;0.84;83.94;92696.84;5093322;28;20051;-59
2021/03/18 04:28:28;;;;;;;0.85;0.82;;;;;;;0.89;83.16;92693.34;5111582;28;20019;-58
2021/03/18 04:30:54;;;;;;;1.40;1.17;;;;;;;0.84;83.28;92694.88;5111563;28;20016;-61
2021/03/18 04:33:20;;;;;;;0.93;0.93;;;;;;;0.82;83.84;92699.31;5093448;28;20018;-62
2021/03/18 04:35:45;;;;;;;0.50;0.43;;;;;;;0.88;83.59;92702.75;5093454;28;20029;-60
2021/03/18 04:38:11;;;;;;;0.60;0.60;;;;;;;0.86;83.33;92694.34;5111605;28;20415;-61
2021/03/18 04:40:36;;;;;;;0.30;0.30;;;;;;;0.82;83.10;92713.66;5093304;28;20084;-60
2021/03/18 04:43:02;;;;;;;1.05;1.05;;;;;;;0.76;83.28;92697.38;5111464;28;20066;-57
2021/03/18 04:45:30;;;;;;;1.13;0.93;;;;;;;0.80;83.00;92716.13;5111272;28;20111;-60
2021/03/18 04:47:56;;;;;;;0.28;0.28;;;;;;;0.83;83.11;92712.41;5111619;28;20032;-59
2021/03/18 04:50:23;;;;;;;0.60;0.60;;;;;;;0.84;83.15;92713.88;5111341;28;20031;-59
2021/03/18 04:52:50;;;;;;;0.93;0.93;;;;;;;0.81;83.11;92720.31;5111481;28;20023;-57
2021/03/18 04:55:18;;;;;;;2.00;1.92;;;;;;;0.86;83.17;92721.53;5111330;28;20022;-52
2021/03/18 04:58:06;;;;;;;0.50;0.50;;;;;;;0.83;83.15;92722.53;5111369;28;20027;-50
2021/03/18 05:00:33;;;;;;;0.40;0.40;;;;;;;0.90;83.39;92720.03;5110659;28;20307;-57
2021/03/18 05:03:02;;;;;;;1.65;1.55;;;;;;;0.80;83.23;92718.84;5092072;28;20028;-54
2021/03/18 05:05:31;;;;;;;0.50;0.50;;;;;;;0.89;83.13;92726.69;5110906;28;20024;-50
2021/03/18 05:07:58;;;;;;;1.08;1.08;;;;;;;0.94;82.56;92733.31;5111368;28;20027;-52
2021/03/18 05:10:27;;;;;;;1.13;1.13;;;;;;;0.97;82.53;92730.34;5093028;28;20521;-55
2021/03/18 05:12:55;;;;;;;0.35;0.35;;;;;;;0.90;83.10;92743.72;5114966;28;20024;-51
2021/03/18 05:15:21;;;;;;;1.27;1.17;;;;;;;0.98;82.97;92742.69;5114853;28;20030;-54
2021/03/18 05:17:47;;;;;;;1.65;0.82;;;;;;;1.02;83.00;92742.44;5114946;28;20143;-53
2021/03/18 05:20:14;;;;;;;0.65;0.65;;;;;;;1.01;82.58;92749.09;5115105;28;20020;-52
2021/03/18 05:22:40;;;;;;;0.75;0.75;;;;;;;0.99;82.83;92748.88;5114764;28;20023;-56
2021/03/18 05:25:09;;;;;;;0.73;0.73;;;;;;;1.02;82.56;92747.88;5113487;28;20131;-58
2021/03/18 05:27:38;;;;;;;0.70;0.70;;;;;;;1.13;82.38;92743.06;5114034;28;20453;-59
2021/03/18 05:30:06;;;;;;;3.20;2.72;;;;;;;1.12;82.25;92757.19;5113312;28;20297;-60
2021/03/18 05:32:32;;;;;;;1.30;1.20;;;;;;;1.14;81.38;92758.16;5114163;28;20058;-59
2021/03/18 05:34:58;;;;;;;0.60;0.60;;;;;;;1.20;81.89;92760.81;5113469;28;20059;-60
2021/03/18 05:37:23;;;;;;;0.50;0.50;;;;;;;1.15;81.94;92764.34;5113865;28;20023;-60
2021/03/18 05:39:49;;;;;;;0.47;0.47;;;;;;;1.07;81.55;92752.50;5113449;28;20477;-59
2021/03/18 05:42:16;;;;;;;0.77;0.77;;;;;;;1.16;81.40;92769.25;5113325;28;20035;-59
2021/03/18 05:44:44;;;;;;;0.73;0.73;;;;;;;1.28;81.32;92780.78;5113237;28;20042;-60
2021/03/18 05:47:10;;;;;;;0.80;0.80;;;;;;;1.37;81.24;92775.78;5113073;28;20500;-60
2021/03/18 05:49:37;;;;;;;2.35;2.25;;;;;;;1.52;80.01;92770.72;5113183;28;20027;-58
2021/03/18 05:52:02;;;;;;;0.47;0.47;;;;;;;1.52;80.00;92775.41;5113278;28;20070;-59
2021/03/18 05:54:28;;;;;;;0.77;0.77;;;;;;;1.70;80.33;92782.94;5112931;28;20500;-60
2021/03/18 05:56:54;;;;;;;4.15;2.17;;;;;;;1.71;79.64;92784.41;5094609;28;20028;-59
2021/03/18 05:59:19;;;;;;;1.02;1.02;;;;;;;1.77;78.72;92789.81;5094958;28;20023;-59
2021/03/18 06:01:45;;;;;;;0.98;0.98;;;;;;;1.82;78.77;92789.03;5113165;28;20031;-63
2021/03/18 06:04:11;;;;;;;1.95;1.83;;;;;;;1.77;78.90;92793.28;5112686;28;20025;-65
2021/03/18 06:06:37;;;;;;;0.60;0.60;;;;;;;1.92;78.68;92792.91;5112544;28;20035;-64
2021/03/18 06:09:06;;;;;;;1.00;1.00;;;;;;;1.92;77.87;92788.19;5112765;28;20034;-63
2021/03/18 06:11:32;;;;;;;0.85;0.85;;;;;;;1.92;78.81;92785.47;5112992;28;20050;-64
2021/03/18 06:13:57;;;;;;;0.82;0.82;;;;;;;1.89;78.08;92794.66;5113029;28;20422;-64
2021/03/18 06:16:23;;;;;;;0.90;0.90;;;;;;;2.01;77.95;92795.28;5112645;28;20163;-63
2021/03/18 06:18:48;;;;;;;0.45;0.45;;;;;;;1.78;78.42;92794.00;5094482;28;20031;-62
2021/03/18 06:21:14;;;;;;;5.88;1.90;;;;;;;1.89;78.04;92799.34;5094132;28;20441;-62
2021/03/18 06:23:39;;;;;;;2.28;1.45;;;;;;;2.06;77.91;92802.66;5108739;28;20439;-62
2021/03/18 06:26:05;;;;;;;1.95;1.23;;;;;;;2.24;77.65;92802.00;5087473;28;20047;-61
2021/03/18 06:28:35;;;;;;;1.35;1.25;;;;;;;2.14;77.40;92798.84;5101666;28;20249;-62
2021/03/18 06:31:06;;;;;;;1.85;1.30;;;;;;;2.20;77.21;92804.25;5092382;28;20042;-62
2021/03/18 06:33:43;;;;;;;0.32;0.32;;;;;;;2.36;77.41;92816.94;5092235;28;20021;-62
2021/03/18 06:36:27;;;;;;;0.63;0.63;;;;;;;2.53;76.79;92814.06;5091824;28;20035;-62
2021/03/18 06:39:14;;;;;;;2.13;1.98;;;;;;;2.61;76.27;92818.44;5092021;28;20043;-62
2021/03/18 06:41:41;;;;;;;0.57;0.40;;;;;;;2.48;76.51;92823.03;5091890;28;20032;-64
2021/03/18 06:44:24;;;;;;;2.15;1.83;;;;;;;2.69;76.09;92821.31;5091894;28;20035;-64
2021/03/18 06:46:50;;;;;;;0.47;0.47;;;;;;;2.93;75.64;92829.44;5092014;28;20023;-65
2021/03/18 06:49:18;;;;;;;0.63;0.63;;;;;;;2.86;75.44;92827.28;5091641;28;20073;-64
2021/03/18 06:51:44;;;;;;;2.40;1.65;;;;;;;2.88;75.33;92830.28;5095366;28;20027;-63
2021/03/18 06:54:18;;;;;;;0.60;0.60;;;;;;;3.08;75.39;92840.66;5093745;28;20028;-63
2021/03/18 06:56:55;;;;;;;3.03;1.35;;;;;;;3.16;74.46;92835.38;5111911;28;20109;-63
2021/03/18 06:59:38;;;;;;;1.33;1.25;;;;;;;3.12;74.48;92835.66;5111574;28;20031;-61
2021/03/18 07:02:10;;;;;;;0.50;0.50;;;;;;;3.35;73.72;92842.31;5100682;28;20036;-60
2021/03/18 07:04:45;;;;;;;1.70;1.60;;;;;;;3.41;73.20;92839.50;5091952;28;20401;-61
2021/03/18 07:07:11;;;;;;;0.75;0.75;;;;;;;3.37;73.02;92844.50;5111719;28;20034;-61
2021/03/18 07:09:38;;;;;;;0.70;0.60;;;;;;;3.27;73.19;92840.69;5108853;28;20031;-61
2021/03/18 07:12:06;;;;;;;4.00;1.25;;;;;;;3.44;73.40;92852.09;5098258;28;20036;-61
2021/03/18 07:14:39;;;;;;;0.40;0.40;;;;;;;3.70;71.77;92846.78;5111950;28;20474;-61
2021/03/18 07:17:06;;;;;;;1.08;0.82;;;;;;;3.83;72.04;92847.53;5111925;28;20036;-60
2021/03/18 07:19:32;;;;;;;0.90;0.90;;;;;;;3.96;71.01;92844.13;5111459;28;20027;-62
2021/03/18 07:21:59;;;;;;;1.10;0.90;;;;;;;4.08;70.14;92845.44;5111173;28;20119;-61
2021/03/18 07:24:37;;;;;;;0.82;0.82;;;;;;;3.94;70.81;92852.13;5110005;28;20031;-61
2021/03/18 07:27:11;;;;;;;0.77;0.77;;;;;;;4.24;70.77;92849.16;5111108;28;20055;-61
2021/03/18 07:29:43;;;;;;;0.60;0.60;;;;;;;4.31;69.54;92849.25;5111261;28;20042;-61
2021/03/18 07:32:09;;;;;;;0.60;0.60;;;;;;;4.38;69.41;92853.38;5111190;28;20512;-61
2021/03/18 07:34:35;;;;;;;1.42;1.33;;;;;;;4.45;69.30;92825.41;5110706;28;20020;-61
2021/03/18 07:37:02;;;;;;;0.77;0.77;;;;;;;4.52;68.98;92849.41;5111259;28;20030;-62
2021/03/18 07:39:28;;;;;;;1.10;1.10;;;;;;;4.67;68.54;92846.88;5109716;28;20031;-62
2021/03/18 07:41:54;;;;;;;2.60;1.73;;;;;;;4.69;68.34;92851.81;5110498;28;20031;-62
2021/03/18 07:44:20;;;;;;;0.60;0.60;;;;;;;4.82;68.08;92857.31;5092033;28;20030;-58
2021/03/18 07:46:48;;;;;;;1.38;1.20;;;;;;;4.86;67.51;92854.97;5102306;28;20958;-61
2021/03/18 07:49:13;;;;;;;1.33;1.27;;;;;;;4.62;68.41;92858.66;5109515;28;20074;-62
2021/03/18 07:51:40;;;;;;;2.30;1.00;;;;;;;4.93;68.01;92862.56;5110816;28;20543;-62
2021/03/18 07:54:06;;;;;;;1.08;1.02;;;;;;;5.05;67.83;92852.88;5092172;28;20023;-63
2021/03/18 07:56:32;;;;;;;0.95;0.95;;;;;;;4.76;66.92;92860.16;5090863;28;20039;-62
2021/03/18 07:59:06;;;;;;;0.70;0.50;;;;;;;4.61;68.17;92866.13;5108559;28;20074;-62
2021/03/18 08:01:32;;;;;;;0.98;0.95;;;;;;;4.91;67.46;92867.81;5109355;28;20023;-60
2021/03/18 08:03:58;;;;;;;0.80;0.80;;;;;;;5.05;66.81;92855.59;5109211;28;20031;-61
2021/03/18 08:06:39;;;;;;;0.90;0.90;;;;;;;5.21;66.37;92865.50;5109588;28;20412;-61
2021/03/18 08:09:12;;;;;;;1.65;1.30;;;;;;;5.24;67.13;92861.72;5109039;28;20023;-60
2021/03/18 08:11:39;;;;;;;1.10;0.63;;;;;;;5.31;66.13;92877.47;5110550;28;20031;-61
2021/03/18 08:14:10;;;;;;;0.20;0.20;;;;;;;5.77;65.81;92868.53;5110411;28;20058;-61
2021/03/18 08:16:35;;;;;;;1.58;0.88;;;;;;;5.94;64.07;92868.91;5110864;28;20059;-60
2021/03/18 08:19:06;;;;;;;1.30;1.13;;;;;;;6.20;63.42;92868.06;5110308;28;20062;-62
2021/03/18 08:21:40;;;;;;;0.45;0.45;;;;;;;6.37;62.30;92867.66;5110927;28;20499;-59
2021/03/18 08:24:14;;;;;;;2.15;2.05;;;;;;;6.47;61.75;92863.94;5105258;28;20024;-59
2021/03/18 08:26:50;;;;;;;0.45;0.45;;;;;;;6.88;60.97;92872.09;5108170;28;20187;-55
2021/03/18 08:29:26;;;;;;;0.68;0.68;;;;;;;7.16;59.70;92863.13;5108959;28;20035;-59
2021/03/18 08:32:03;;;;;;;0.70;0.70;;;;;;;6.83;59.64;92872.97;5109881;28;20035;-61
2021/03/18 08:34:48;;;;;;;0.30;0.30;;;;;;;7.02;59.44;92878.22;5091924;28;20039;-61
2021/03/18 08:37:14;;;;;;;0.90;0.90;;;;;;;6.65;60.03;92875.94;5109735;28;20023;-60
2021/03/18 08:39:47;;;;;;;0.63;0.63;;;;;;;6.67;60.94;92878.91;5110265;28;20459;-56
2021/03/18 08:42:28;;;;;;;0.63;0.63;;;;;;;7.13;60.14;92875.16;5110035;28;20107;-50
2021/03/18 08:44:58;;;;;;;1.33;0.90;;;;;;;6.93;60.15;92873.22;5109999;28;20143;-59
2021/03/18 08:47:40;;;;;;;0.73;0.52;;;;;;;7.22;59.37;92874.69;5112996;28;20023;-54
2021/03/18 08:50:09;;;;;;;1.08;1.08;;;;;;;7.46;58.33;92868.03;5074938;28;20051;-58
2021/03/18 08:52:45;;;;;;;0.70;0.70;;;;;;;7.57;58.10;92868.44;5113664;28;20020;-55
2021/03/18 08:55:14;;;;;;;0.52;0.52;;;;;;;7.61;56.93;92877.06;5111989;28;20054;-54
2021/03/18 08:57:40;;;;;;;0.85;0.85;;;;;;;7.62;57.35;92883.31;5095484;28;20019;-60
2021/03/18 09:00:13;;;;;;;1.23;1.13;;;;;;;7.64;57.72;92883.50;5113845;28;20027;-61
2021/03/18 09:02:40;;;;;;;1.00;0.93;;;;;;;7.69;57.26;92876.38;5114373;28;20043;-55
2021/03/18 09:05:11;;;;;;;1.77;1.02;;;;;;;7.40;57.51;92889.44;5113291;28;20036;-60
2021/03/18 09:07:37;;;;;;;0.82;0.82;;;;;;;7.60;57.18;92886.56;5114034;28;20102;-50
2021/03/18 09:10:26;;;;;;;0.73;0.73;;;;;;;7.54;58.00;92883.25;5113677;28;20023;-58
2021/03/18 09:13:02;;;;;;;0.63;0.63;;;;;;;7.81;58.21;92894.72;5113850;28;20038;-61
2021/03/18 09:15:29;;;;;;;0.60;0.60;;;;;;;8.14;56.51;92893.72;5113721;28;20024;-59
2021/03/18 09:18:17;;;;;;;0.28;0.28;;;;;;;8.05;55.49;92891.53;5113928;28;20030;-57
2021/03/18 09:20:49;;;;;;;2.20;2.00;;;;;;;7.92;56.45;92885.44;5099091;28;20464;-59
2021/03/18 09:23:17;;;;;;;0.50;0.50;;;;;;;7.86;54.50;92891.06;5109284;28;20028;-54
2021/03/18 09:25:47;;;;;;;1.92;0.93;;;;;;;8.19;54.41;92894.84;5113026;28;20048;-50
2021/03/18 09:28:13;;;;;;;2.55;1.20;;;;;;;8.20;54.95;92891.56;5113559;28;20031;-60
2021/03/18 09:30:50;;;;;;;0.43;0.43;;;;;;;8.33;54.78;92887.94;5113370;28;20051;-59
2021/03/18 09:33:25;;;;;;;0.40;0.40;;;;;;;8.75;53.72;92897.31;5113261;28;20035;-51
2021/03/18 09:36:17;;;;;;;1.20;1.15;;;;;;;9.39;53.93;92890.66;5113403;28;20080;-60
2021/03/18 09:38:42;;;;;;;1.20;1.17;;;;;;;9.39;51.90;92901.69;5102953;28;20039;-57
2021/03/18 09:41:21;;;;;;;1.23;0.70;;;;;;;9.79;52.35;92894.19;5112701;28;20492;-49
2021/03/18 09:43:46;;;;;;;0.50;0.43;;;;;;;9.82;51.88;92890.34;5110614;28;20523;-60
2021/03/18 09:46:12;;;;;;;0.43;0.43;;;;;;;9.57;50.70;92892.97;5113467;28;20028;-60
2021/03/18 09:48:39;;;;;;;1.35;1.25;;;;;;;9.15;51.84;92891.97;5113157;28;20031;-58
2021/03/18 09:51:10;;;;;;;0.98;0.65;;;;;;;9.20;52.10;92896.56;5112793;28;20024;-52
2021/03/18 09:53:36;;;;;;;0.52;0.52;;;;;;;9.52;50.32;92899.44;5112857;28;20027;-50
2021/03/18 09:56:07;;;;;;;1.42;1.33;;;;;;;9.62;50.83;92902.34;5112503;28;20027;-51
2021/03/18 09:58:33;;;;;;;1.15;0.90;;;;;;;9.82;50.23;92904.13;5112635;28;20496;-58
2021/03/18 10:01:14;;;;;;;0.82;0.82;;;;;;;9.89;50.00;92898.59;5112677;28;20028;-53
2021/03/18 10:04:11;;;;;;;1.95;1.75;;;;;;;9.90;49.03;92904.81;5113111;28;20024;-56
2021/03/18 10:06:39;;;;;;;2.85;1.73;;;;;;;9.56;50.47;92910.81;5112560;28;20458;-48
2021/03/18 10:09:16;;;;;;;0.50;0.50;;;;;;;9.96;50.70;92910.16;5112603;28;20066;-53
2021/03/18 10:11:43;;;;;;;0.52;0.52;;;;;;;9.72;48.32;92900.50;5112731;28;20420;-52
2021/03/18 10:14:09;;;;;;;0.98;0.95;;;;;;;10.20;48.39;92898.50;5094652;28;20016;-57
2021/03/18 10:16:36;;;;;;;1.65;1.27;;;;;;;10.08;48.02;92886.38;5112489;28;20501;-55
2021/03/18 10:19:06;;;;;;;1.17;1.00;;;;;;;10.13;47.85;92897.22;5093919;28;20035;-51
2021/03/18 10:21:32;;;;;;;;;;;;;;;10.39;48.37;92891.22;5094418;28;20019;-52
2021/03/18 10:23:57;;;;;;;2.55;1.30;;;;;;;10.54;47.78;92904.19;5111266;28;20414;-53
2021/03/18 10:26:24;;;;;;;0.47;0.47;;;;;;;10.25;48.89;92905.81;5112085;28;20052;-54
2021/03/18 10:29:00;;;;;;;0.75;0.63;;;;;;;10.28;48.53;92899.91;5112224;28;20054;-59
2021/03/18 10:31:26;;;;;;;0.63;0.63;;;;;;;10.57;48.29;92900.28;5112615;28;20023;-59
2021/03/18 10:33:52;;;;;;;0.88;0.85;;;;;;;10.72;46.06;92902.22;5112251;28;20019;-58
2021/03/18 10:36:31;;;;;;;0.65;0.65;;;;;;;10.55;46.28;92911.88;5111738;28;20413;-51
2021/03/18 10:38:58;;;;;;;1.55;0.88;;;;;;;9.72;47.71;92919.78;5112466;28;20178;-54
2021/03/18 10:41:24;;;;;;;0.40;0.40;;;;;;;9.65;48.04;92921.28;5111621;28;20102;-56
2021/03/18 10:43:49;;;;;;;0.75;0.75;;;;;;;9.09;49.18;92919.72;5111804;28;20115;-58
2021/03/18 10:46:17;;;;;;;0.75;0.75;;;;;;;8.88;48.62;92926.72;5111901;28;20089;-49
2021/03/18 10:48:49;;;;;;;0.30;0.30;;;;;;;8.40;51.04;92920.94;5112120;28;20415;-49
2021/03/18 10:51:15;;;;;;;0.73;0.73;;;;;;;8.03;52.57;92927.06;5093751;28;20043;-50
2021/03/18 10:53:43;;;;;;;0.40;0.40;;;;;;;7.93;52.86;92925.34;5111817;28;20027;-54
2021/03/18 10:56:20;;;;;;;0.32;0.32;;;;;;;7.68;53.94;92922.34;5110853;28;20070;-55
2021/03/18 10:58:46;;;;;;;0.40;0.40;;;;;;;7.79;54.45;92927.53;5111273;28;20114;-52
2021/03/18 11:01:23;;;;;;;0.47;0.47;;;;;;;7.66;52.72;92924.91;5111023;28;20114;-59
2021/03/18 11:03:49;;;;;;;4.40;3.65;;;;;;;7.84;53.00;92917.66;5111573;28;20023;-56
2021/03/18 11:06:17;;;;;;;7.40;2.60;;;;;;;8.14;53.40;92912.97;5111695;28;20054;-60
2021/03/18 11:08:51;;;;;;;0.70;0.70;;;;;;;8.25;52.25;92914.66;5110905;28;20031;-55
2021/03/18 11:11:21;;;;;;;1.00;1.00;;;;;;;9.09;50.20;92925.22;5111345;28;20023;-51
2021/03/18 11:13:47;;;;;;;0.88;0.88;;;;;;;8.60;50.98;92919.31;5111306;28;20015;-56
2021/03/18 11:16:22;;;;;;;1.17;1.02;;;;;;;8.68;50.52;92922.84;5111198;28;20159;-53
2021/03/18 11:18:49;;;;;;;0.95;0.93;;;;;;;8.26;52.31;92913.41;5111110;28;20524;-52
2021/03/18 11:21:25;;;;;;;0.30;0.30;;;;;;;7.91;53.06;92925.91;5111269;28;20508;-53
2021/03/18 11:23:53;;;;;;;0.43;0.43;;;;;;;7.87;53.24;92917.28;5110133;28;20027;-57
2021/03/18 11:26:21;;;;;;;1.00;0.95;;;;;;;7.63;54.07;92921.22;5110925;28;20432;-55
2021/03/18 11:28:53;;;;;;;0.10;0.10;;;;;;;7.46;54.16;92920.22;5111008;28;20102;-48
2021/03/18 11:31:20;;;;;;;0.50;0.50;;;;;;;7.63;54.29;92921.22;5110835;28;20031;-49
2021/03/18 11:33:46;;;;;;;0.52;0.52;;;;;;;7.79;53.72;92896.56;5111350;28;20034;-50
2021/03/18 11:36:11;;;;;;;1.83;1.73;;;;;;;8.06;52.02;92920.47;5110709;28;20563;-52
2021/03/18 11:38:37;;;;;;;0.68;0.68;;;;;;;8.26;51.85;92929.91;5110996;28;20024;-55
2021/03/18 11:41:02;;;;;;;0.43;0.43;;;;;;;8.13;50.53;92927.28;5110780;28;20412;-51
2021/03/18 11:43:29;;;;;;;1.48;0.50;;;;;;;8.22;50.02;92921.25;5109123;28;20027;-56
2021/03/18 11:45:55;;;;;;;0.20;0.20;;;;;;;8.06;50.04;92914.97;5111082;28;20054;-56
2021/03/18 11:48:20;;;;;;;0.68;0.57;;;;;;;8.06;51.53;92914.22;5110702;28;20026;-51
2021/03/18 11:50:46;;;;;;;0.30;0.30;;;;;;;7.94;50.06;92915.84;5110702;28;20023;-50